createdAt,value
2023-07-11T00:00:21.866Z,68.35
2023-07-11T00:01:24.532Z,68.50
2023-07-11T00:02:27.465Z,68.60
2023-07-11T00:03:30.106Z,68.64
2023-07-11T00:04:35.364Z,68.85
2023-07-11T00:05:37.979Z,68.96
2023-07-11T00:06:40.584Z,69.04
2023-07-11T00:07:44.005Z,69.15
2023-07-11T00:08:46.616Z,69.18
2023-07-11T00:09:49.788Z,69.30
2023-07-11T00:10:52.354Z,69.37
2023-07-11T00:11:55.020Z,69.37
2023-07-11T00:12:57.687Z,69.47
2023-07-11T00:14:01.059Z,69.50
2023-07-11T00:15:05.289Z,69.55
2023-07-11T00:16:10.755Z,69.61
2023-07-11T00:17:13.993Z,69.71
2023-07-11T00:18:16.599Z,69.76
2023-07-11T00:19:21.219Z,69.82
2023-07-11T00:20:24.033Z,69.88
2023-07-11T00:21:26.668Z,70.05
2023-07-11T00:22:30.713Z,70.19
2023-07-11T00:23:33.759Z,70.30
2023-07-11T00:24:36.367Z,70.35
2023-07-11T00:25:39.036Z,70.47
2023-07-11T00:26:41.612Z,70.52
2023-07-11T00:27:44.216Z,70.59
2023-07-11T00:28:46.821Z,70.64
2023-07-11T00:29:49.453Z,70.67
2023-07-11T00:30:52.526Z,70.81
2023-07-11T00:31:55.132Z,70.86
2023-07-11T00:32:57.810Z,70.90
2023-07-11T00:34:00.456Z,70.96
2023-07-11T00:35:03.192Z,71.02
2023-07-11T00:36:06.227Z,71.03
2023-07-11T00:37:09.153Z,71.09
2023-07-11T00:38:11.750Z,71.13
2023-07-11T00:39:16.721Z,71.38
2023-07-11T00:40:19.338Z,71.47
2023-07-11T00:41:21.971Z,71.51
2023-07-11T00:42:24.570Z,71.52
2023-07-11T00:43:27.225Z,71.62
2023-07-11T00:44:30.230Z,71.82
2023-07-11T00:45:51.267Z,71.83
2023-07-11T00:46:54.033Z,71.92
2023-07-11T00:47:56.683Z,72.02
2023-07-11T00:49:04.231Z,72.09
2023-07-11T00:50:09.550Z,72.14
2023-07-11T00:51:14.355Z,72.27
2023-07-11T00:52:18.474Z,72.28
2023-07-11T00:53:21.882Z,72.33
2023-07-11T00:54:32.701Z,72.40
2023-07-11T00:55:35.304Z,72.50
2023-07-11T00:56:45.059Z,72.58
2023-07-11T00:57:47.780Z,72.58
2023-07-11T00:58:51.330Z,72.54
2023-07-11T00:59:54.415Z,72.49
2023-07-11T01:00:57.368Z,72.52
2023-07-11T01:02:13.287Z,72.57
2023-07-11T01:03:16.012Z,72.51
2023-07-11T01:04:20.725Z,72.65
2023-07-11T01:05:23.383Z,72.69
2023-07-11T01:06:28.801Z,72.71
2023-07-11T01:07:34.784Z,72.78
2023-07-11T01:08:37.389Z,72.84
2023-07-11T01:09:40.004Z,72.94
2023-07-11T01:10:42.674Z,72.96
2023-07-11T01:11:58.292Z,72.96
2023-07-11T01:13:02.981Z,72.94
2023-07-11T01:14:05.611Z,72.94
2023-07-11T01:15:08.937Z,72.85
2023-07-11T01:16:11.673Z,72.92
2023-07-11T01:17:35.086Z,73.06
2023-07-11T01:18:38.093Z,73.16
2023-07-11T01:19:40.728Z,73.16
2023-07-11T01:20:43.304Z,73.03
2023-07-11T01:21:46.360Z,73.00
2023-07-11T01:22:50.525Z,72.99
2023-07-11T01:23:53.222Z,72.92
2023-07-11T01:24:57.610Z,73.18
2023-07-11T01:26:06.137Z,73.27
2023-07-11T01:27:09.304Z,73.33
2023-07-11T01:28:14.326Z,73.33
2023-07-11T01:29:17.035Z,73.50
2023-07-11T01:30:26.259Z,73.47
2023-07-11T01:31:29.006Z,73.58
2023-07-11T01:32:31.946Z,73.74
2023-07-11T01:33:35.610Z,73.85
2023-07-11T01:34:38.197Z,73.90
2023-07-11T01:35:40.811Z,73.96
2023-07-11T01:36:43.423Z,73.91
2023-07-11T01:37:46.072Z,73.99
2023-07-11T01:38:48.656Z,73.95
2023-07-11T01:39:51.291Z,74.17
2023-07-11T01:40:53.947Z,74.22
2023-07-11T01:41:56.608Z,74.35
2023-07-11T01:42:59.449Z,74.49
2023-07-11T01:44:02.701Z,74.55
2023-07-11T01:45:05.860Z,74.62
2023-07-11T01:46:08.698Z,74.79
2023-07-11T01:47:11.839Z,74.80
2023-07-11T01:48:14.510Z,74.80
2023-07-11T01:49:17.175Z,74.80
2023-07-11T01:50:19.773Z,74.91
2023-07-11T01:51:22.402Z,75.05
2023-07-11T01:52:25.158Z,75.15
2023-07-11T01:53:27.813Z,75.16
2023-07-11T01:54:30.459Z,75.22
2023-07-11T01:55:33.077Z,75.26
2023-07-11T01:56:35.706Z,75.31
2023-07-11T01:57:38.352Z,75.35
2023-07-11T01:58:41.052Z,75.31
2023-07-11T01:59:44.112Z,75.24
2023-07-11T02:00:46.736Z,75.22
2023-07-11T02:01:49.496Z,75.14
2023-07-11T02:02:52.638Z,74.90
2023-07-11T02:03:55.926Z,75.28
2023-07-11T02:04:58.690Z,75.41
2023-07-11T02:06:01.254Z,75.45
2023-07-11T02:07:05.104Z,75.45
2023-07-11T02:08:07.758Z,75.45
2023-07-11T02:09:10.363Z,75.45
2023-07-11T02:10:12.969Z,75.50
2023-07-11T02:11:15.644Z,75.60
2023-07-11T02:12:18.221Z,75.57
2023-07-11T02:13:20.990Z,75.35
2023-07-11T02:14:23.798Z,75.33
2023-07-11T02:15:26.419Z,75.29
2023-07-11T02:16:29.370Z,75.26
2023-07-11T02:17:33.398Z,75.34
2023-07-11T02:18:36.173Z,75.41
2023-07-11T02:19:38.797Z,75.43
2023-07-11T02:20:43.002Z,75.66
2023-07-11T02:21:45.971Z,75.72
2023-07-11T02:22:48.604Z,75.81
2023-07-11T02:23:51.416Z,75.95
2023-07-11T02:24:54.096Z,75.91
2023-07-11T02:25:56.714Z,75.82
2023-07-11T02:26:59.375Z,75.96
2023-07-11T02:28:02.026Z,75.99
2023-07-11T02:29:05.472Z,76.14
2023-07-11T02:30:08.492Z,76.21
2023-07-11T02:31:11.133Z,76.18
2023-07-11T02:32:13.802Z,76.16
2023-07-11T02:33:16.434Z,76.27
2023-07-11T02:34:19.161Z,76.39
2023-07-11T02:35:21.776Z,76.37
2023-07-11T02:36:24.374Z,76.38
2023-07-11T02:37:26.960Z,76.38
2023-07-11T02:38:29.555Z,76.53
2023-07-11T02:39:32.145Z,76.64
2023-07-11T02:40:34.780Z,76.56
2023-07-11T02:41:37.414Z,76.57
2023-07-11T02:42:40.042Z,76.64
2023-07-11T02:43:42.637Z,76.64
2023-07-11T02:44:45.221Z,76.70
2023-07-11T02:45:49.225Z,76.56
2023-07-11T02:46:51.871Z,76.57
2023-07-11T02:47:54.563Z,76.67
2023-07-11T02:48:57.561Z,76.74
2023-07-11T02:50:00.227Z,76.69
2023-07-11T02:51:02.904Z,76.76
2023-07-11T02:52:09.533Z,76.73
2023-07-11T02:53:12.125Z,76.71
2023-07-11T02:54:15.368Z,76.69
2023-07-11T02:55:17.995Z,76.68
2023-07-11T02:56:21.382Z,76.74
2023-07-11T02:57:23.971Z,76.81
2023-07-11T02:58:26.626Z,76.92
2023-07-11T02:59:29.191Z,76.97
2023-07-11T03:00:31.939Z,77.03
2023-07-11T03:01:35.433Z,77.09
2023-07-11T03:02:38.080Z,77.14
2023-07-11T03:03:40.901Z,77.20
2023-07-11T03:04:43.555Z,77.29
2023-07-11T03:05:47.925Z,77.35
2023-07-11T03:06:50.573Z,77.40
2023-07-11T03:07:53.185Z,77.57
2023-07-11T03:08:55.773Z,77.62
2023-07-11T03:09:58.358Z,77.69
2023-07-11T03:11:01.844Z,77.71
2023-07-11T03:12:04.759Z,77.80
2023-07-11T03:13:07.447Z,77.82
2023-07-11T03:14:10.118Z,77.94
2023-07-11T03:15:12.764Z,77.90
2023-07-11T03:16:15.480Z,78.03
2023-07-11T03:17:18.861Z,78.17
2023-07-11T03:18:21.579Z,78.23
2023-07-11T03:19:24.182Z,78.22
2023-07-11T03:20:26.942Z,78.19
2023-07-11T03:21:29.541Z,78.23
2023-07-11T03:22:32.217Z,78.21
2023-07-11T03:23:34.876Z,78.27
2023-07-11T03:24:37.490Z,78.30
2023-07-11T03:25:40.242Z,78.23
2023-07-11T03:26:45.109Z,78.21
2023-07-11T03:27:47.774Z,78.21
2023-07-11T03:28:50.531Z,78.28
2023-07-11T03:29:53.128Z,78.32
2023-07-11T03:30:55.763Z,78.41
2023-07-11T03:31:58.419Z,78.45
2023-07-11T03:33:01.272Z,78.54
2023-07-11T03:34:03.894Z,78.56
2023-07-11T03:35:06.669Z,78.50
2023-07-11T03:36:09.537Z,78.52
2023-07-11T03:37:12.644Z,78.51
2023-07-11T03:38:15.336Z,78.43
2023-07-11T03:39:18.144Z,78.42
2023-07-11T03:40:20.792Z,78.39
2023-07-11T03:41:23.413Z,78.36
2023-07-11T03:42:26.042Z,78.27
2023-07-11T03:43:28.689Z,78.25
2023-07-11T03:44:31.313Z,78.22
2023-07-11T03:45:33.944Z,78.21
2023-07-11T03:46:36.622Z,78.15
2023-07-11T03:47:39.328Z,78.19
2023-07-11T03:48:42.004Z,78.10
2023-07-11T03:49:44.618Z,78.01
2023-07-11T03:50:47.202Z,77.98
2023-07-11T03:51:49.836Z,77.89
2023-07-11T03:52:52.414Z,77.78
2023-07-11T03:53:55.042Z,77.61
2023-07-11T03:54:57.669Z,77.35
2023-07-11T03:56:00.297Z,77.11
2023-07-11T03:57:03.561Z,76.99
2023-07-11T03:58:06.164Z,76.91
2023-07-11T03:59:09.099Z,76.67
2023-07-11T04:00:12.283Z,76.43
2023-07-11T04:01:15.013Z,76.01
2023-07-11T04:02:17.673Z,75.73
2023-07-11T04:03:20.444Z,75.49
2023-07-11T04:04:23.175Z,75.47
2023-07-11T04:05:25.800Z,75.34
2023-07-11T04:06:28.434Z,75.32
2023-07-11T04:07:31.008Z,75.17
2023-07-11T04:08:33.634Z,74.74
2023-07-11T04:09:36.718Z,74.42
2023-07-11T04:10:39.972Z,74.13
2023-07-11T04:11:42.723Z,74.15
2023-07-11T04:12:45.443Z,74.24
2023-07-11T04:13:48.044Z,74.06
2023-07-11T04:14:50.743Z,73.81
2023-07-11T04:15:53.386Z,73.48
2023-07-11T04:16:56.107Z,73.32
2023-07-11T04:17:58.825Z,73.01
2023-07-11T04:19:01.465Z,72.72
2023-07-11T04:20:04.330Z,72.49
2023-07-11T04:21:06.923Z,72.05
2023-07-11T04:22:09.614Z,72.03
2023-07-11T04:23:12.258Z,71.52
2023-07-11T04:24:14.876Z,71.11
2023-07-11T04:25:17.495Z,71.11
2023-07-11T04:26:20.115Z,71.03
2023-07-11T04:27:22.749Z,71.03
2023-07-11T04:28:25.521Z,70.58
2023-07-11T04:29:28.103Z,70.68
2023-07-11T04:30:30.758Z,70.66
2023-07-11T04:31:33.596Z,70.40
2023-07-11T04:32:37.064Z,70.20
2023-07-11T04:33:39.731Z,69.36
2023-07-11T04:34:42.354Z,69.09
2023-07-11T04:35:45.317Z,68.72
2023-07-11T04:36:47.936Z,68.57
2023-07-11T04:37:50.621Z,68.51
2023-07-11T04:38:54.222Z,68.59
2023-07-11T04:39:56.994Z,68.17
2023-07-11T04:41:03.615Z,67.82
2023-07-11T04:42:06.333Z,67.66
2023-07-11T04:43:08.962Z,67.49
2023-07-11T04:44:11.604Z,67.29
2023-07-11T04:45:14.255Z,67.17
2023-07-11T04:46:17.341Z,67.10
2023-07-11T04:47:20.013Z,66.95
2023-07-11T04:48:22.586Z,66.84
2023-07-11T04:49:25.186Z,66.68
2023-07-11T04:50:27.763Z,66.47
2023-07-11T04:51:31.412Z,66.32
2023-07-11T04:52:33.996Z,66.06
2023-07-11T04:53:36.767Z,65.83
2023-07-11T04:54:39.395Z,65.58
2023-07-11T04:55:42.139Z,65.44
2023-07-11T04:56:44.821Z,65.38
2023-07-11T04:57:47.502Z,65.21
2023-07-11T04:58:50.145Z,65.04
2023-07-11T04:59:52.764Z,64.88
2023-07-11T05:01:01.647Z,64.71
2023-07-11T05:02:04.457Z,64.56
2023-07-11T05:03:07.141Z,64.45
2023-07-11T05:04:09.977Z,64.33
2023-07-11T05:05:12.692Z,64.18
2023-07-11T05:06:15.290Z,64.12
2023-07-11T05:07:18.012Z,63.96
2023-07-11T05:08:20.612Z,63.83
2023-07-11T05:09:23.247Z,63.72
2023-07-11T05:10:25.866Z,63.65
2023-07-11T05:11:28.439Z,63.66
2023-07-11T05:12:31.093Z,63.69
2023-07-11T05:13:35.365Z,63.69
2023-07-11T05:14:38.961Z,63.81
2023-07-11T05:15:41.565Z,63.71
2023-07-11T05:16:44.268Z,63.65
2023-07-11T05:17:46.975Z,63.56
2023-07-11T05:18:50.218Z,63.43
2023-07-11T05:19:52.882Z,63.46
2023-07-11T05:20:57.002Z,63.32
2023-07-11T05:21:59.633Z,63.19
2023-07-11T05:23:02.292Z,62.98
2023-07-11T05:24:05.250Z,62.52
2023-07-11T05:25:10.449Z,62.11
2023-07-11T05:26:13.689Z,61.73
2023-07-11T05:27:16.285Z,61.40
2023-07-11T05:28:19.389Z,61.36
2023-07-11T05:29:22.030Z,61.23
2023-07-11T05:30:24.628Z,61.11
2023-07-11T05:31:27.257Z,60.88
2023-07-11T05:32:29.938Z,60.73
2023-07-11T05:33:33.149Z,60.77
2023-07-11T05:34:37.211Z,60.34
2023-07-11T05:36:10.830Z,60.08
2023-07-11T05:37:14.471Z,59.42
2023-07-11T05:38:17.071Z,59.26
2023-07-11T05:39:19.763Z,58.94
2023-07-11T05:40:24.282Z,58.52
2023-07-11T05:41:28.170Z,58.06
2023-07-11T05:42:30.755Z,57.90
2023-07-11T05:43:33.385Z,57.77
2023-07-11T05:44:36.034Z,57.46
2023-07-11T05:45:38.691Z,57.40
2023-07-11T05:46:42.767Z,56.99
2023-07-11T05:47:47.237Z,56.27
2023-07-11T05:48:50.322Z,56.13
2023-07-11T05:49:52.932Z,55.87
2023-07-11T05:50:59.905Z,55.64
2023-07-11T05:52:02.450Z,55.40
2023-07-11T05:53:05.018Z,55.26
2023-07-11T05:54:07.636Z,55.09
2023-07-11T05:55:10.372Z,54.69
2023-07-11T05:56:13.956Z,54.65
2023-07-11T05:57:16.566Z,54.60
2023-07-11T05:58:19.646Z,54.57
2023-07-11T05:59:22.222Z,54.36
2023-07-11T06:00:24.921Z,54.11
2023-07-11T06:01:30.072Z,53.78
2023-07-11T06:02:33.521Z,53.52
2023-07-11T06:03:36.137Z,53.26
2023-07-11T06:04:38.818Z,53.11
2023-07-11T06:05:42.302Z,52.82
2023-07-11T06:06:45.204Z,52.59
2023-07-11T06:07:48.602Z,52.31
2023-07-11T06:08:51.740Z,52.03
2023-07-11T06:09:55.945Z,51.46
2023-07-11T06:11:01.929Z,51.10
2023-07-11T06:12:04.855Z,50.87
2023-07-11T06:13:07.454Z,50.69
2023-07-11T06:14:11.083Z,50.53
2023-07-11T06:15:13.809Z,50.18
2023-07-11T06:16:18.586Z,49.85
2023-07-11T06:17:21.326Z,49.65
2023-07-11T06:18:23.944Z,49.51
2023-07-11T06:19:26.558Z,49.57
2023-07-11T06:20:29.303Z,49.57
2023-07-11T06:21:32.491Z,49.39
2023-07-11T06:22:35.222Z,48.96
2023-07-11T06:23:38.045Z,48.92
2023-07-11T06:24:41.945Z,48.97
2023-07-11T06:25:44.711Z,49.01
2023-07-11T06:26:47.368Z,49.02
2023-07-11T06:27:50.033Z,49.11
2023-07-11T06:28:52.708Z,48.65
2023-07-11T06:29:55.279Z,48.58
2023-07-11T06:31:00.050Z,48.53
2023-07-11T06:32:02.777Z,48.77
2023-07-11T06:33:05.479Z,48.85
2023-07-11T06:34:08.152Z,49.03
2023-07-11T06:35:10.814Z,48.94
2023-07-11T06:36:13.577Z,48.95
2023-07-11T06:37:16.231Z,49.45
2023-07-11T06:38:19.622Z,50.10
2023-07-11T06:39:22.311Z,50.41
2023-07-11T06:40:24.954Z,50.62
2023-07-11T06:41:29.699Z,51.19
2023-07-11T06:42:32.298Z,51.64
2023-07-11T06:43:35.170Z,51.91
2023-07-11T06:44:37.811Z,51.76
2023-07-11T06:45:40.433Z,51.88
2023-07-11T06:46:43.054Z,52.37
2023-07-11T06:47:45.723Z,52.57
2023-07-11T06:48:48.342Z,52.69
2023-07-11T06:49:51.118Z,53.31
2023-07-11T06:51:01.609Z,53.56
2023-07-11T06:52:04.473Z,53.49
2023-07-11T06:53:07.102Z,53.51
2023-07-11T06:54:09.690Z,53.67
2023-07-11T06:55:13.636Z,53.81
2023-07-11T06:56:16.276Z,53.72
2023-07-11T06:57:19.761Z,53.73
2023-07-11T06:58:23.145Z,53.90
2023-07-11T06:59:25.761Z,53.57
2023-07-11T07:00:28.385Z,53.60
2023-07-11T07:01:38.149Z,53.66
2023-07-11T07:02:41.721Z,53.85
2023-07-11T07:03:44.555Z,54.03
2023-07-11T07:04:47.202Z,54.13
2023-07-11T07:05:54.973Z,53.93
2023-07-11T07:06:57.641Z,54.05
2023-07-11T07:08:12.657Z,53.94
2023-07-11T07:09:16.516Z,53.49
2023-07-11T07:10:19.178Z,53.31
2023-07-11T07:11:21.825Z,53.42
2023-07-11T07:12:25.158Z,53.94
2023-07-11T07:13:28.270Z,53.10
2023-07-11T07:14:31.000Z,52.44
2023-07-11T07:15:33.574Z,52.41
2023-07-11T07:16:38.149Z,52.91
2023-07-11T07:17:40.829Z,53.13
2023-07-11T07:18:44.644Z,52.89
2023-07-11T07:19:47.243Z,52.44
2023-07-11T07:20:58.147Z,52.21
2023-07-11T07:22:01.449Z,51.27
2023-07-11T07:23:05.955Z,51.89
2023-07-11T07:24:08.822Z,52.71
2023-07-11T07:25:24.375Z,52.51
2023-07-11T07:26:27.914Z,52.43
2023-07-11T07:27:30.482Z,52.34
2023-07-11T07:28:35.394Z,52.18
2023-07-11T07:29:40.234Z,50.89
2023-07-11T07:30:50.226Z,50.52
2023-07-11T07:31:52.852Z,49.97
2023-07-11T07:32:55.788Z,49.94
2023-07-11T07:33:58.446Z,49.82
2023-07-11T07:35:01.076Z,49.16
2023-07-11T07:36:06.133Z,49.16
2023-07-11T07:37:08.697Z,49.77
2023-07-11T07:38:11.884Z,50.15
2023-07-11T07:39:14.463Z,51.01
2023-07-11T07:40:18.143Z,51.20
2023-07-11T07:41:21.385Z,51.06
2023-07-11T07:42:24.012Z,51.71
2023-07-11T07:43:28.291Z,50.80
2023-07-11T07:44:30.869Z,50.65
2023-07-11T07:45:33.486Z,50.56
2023-07-11T07:46:36.153Z,49.54
2023-07-11T07:47:38.897Z,50.22
2023-07-11T07:48:41.836Z,50.31
2023-07-11T07:49:53.826Z,50.14
2023-07-11T07:51:05.929Z,50.01
2023-07-11T07:52:08.776Z,49.81
2023-07-11T07:53:13.209Z,49.92
2023-07-11T07:54:15.810Z,49.55
2023-07-11T07:55:18.472Z,49.61
2023-07-11T07:56:23.147Z,49.57
2023-07-11T07:57:26.912Z,49.08
2023-07-11T07:58:41.915Z,49.10
2023-07-11T07:59:45.127Z,49.01
2023-07-11T08:00:47.687Z,48.85
2023-07-11T08:01:50.306Z,48.72
2023-07-11T08:02:53.075Z,48.77
2023-07-11T08:03:55.846Z,48.53
2023-07-11T08:04:59.610Z,48.60
2023-07-11T08:06:14.592Z,48.73
2023-07-11T08:07:18.951Z,48.65
2023-07-11T08:08:22.018Z,48.15
2023-07-11T08:09:26.792Z,47.83
2023-07-11T08:10:29.332Z,47.74
2023-07-11T08:11:32.028Z,47.58
2023-07-11T08:12:34.739Z,47.02
2023-07-11T08:13:49.208Z,45.11
2023-07-11T08:14:59.929Z,43.92
2023-07-11T08:16:09.181Z,42.79
2023-07-11T08:17:21.910Z,43.17
2023-07-11T08:18:24.596Z,43.19
2023-07-11T08:19:27.200Z,43.90
2023-07-11T08:20:29.804Z,42.66
2023-07-11T08:21:32.487Z,42.31
2023-07-11T08:22:35.206Z,42.21
2023-07-11T08:23:37.820Z,42.62
2023-07-11T08:24:40.450Z,41.80
2023-07-11T08:25:43.066Z,40.54
2023-07-11T08:26:45.625Z,41.14
2023-07-11T08:27:48.226Z,40.88
2023-07-11T08:28:52.369Z,40.87
2023-07-11T08:29:55.012Z,40.59
2023-07-11T08:30:57.659Z,40.57
2023-07-11T08:32:00.227Z,40.77
2023-07-11T08:33:03.515Z,41.24
2023-07-11T08:34:06.346Z,41.42
2023-07-11T08:35:09.368Z,41.10
2023-07-11T08:36:11.936Z,40.45
2023-07-11T08:37:14.924Z,40.60
2023-07-11T08:38:17.554Z,40.72
2023-07-11T08:39:20.116Z,41.22
2023-07-11T08:40:37.980Z,40.40
2023-07-11T08:41:53.811Z,39.89
2023-07-11T08:42:57.110Z,40.19
2023-07-11T08:44:06.336Z,40.57
2023-07-11T08:45:31.279Z,40.45
2023-07-11T08:46:44.114Z,40.53
2023-07-11T08:48:07.670Z,40.90
2023-07-11T08:49:18.585Z,41.25
2023-07-11T08:50:27.632Z,41.67
2023-07-11T08:51:38.348Z,41.59
2023-07-11T08:52:43.081Z,41.34
2023-07-11T08:53:52.510Z,41.11
2023-07-11T08:55:03.884Z,41.31
2023-07-11T08:56:21.113Z,40.79
2023-07-11T08:57:25.037Z,40.43
2023-07-11T08:58:35.194Z,40.59
2023-07-11T08:59:59.871Z,40.64
2023-07-11T09:01:04.611Z,40.27
2023-07-11T09:02:47.597Z,40.14
2023-07-11T09:03:50.317Z,40.50
2023-07-11T09:04:54.435Z,40.83
2023-07-11T09:06:02.832Z,41.15
2023-07-11T09:07:10.922Z,41.16
2023-07-11T09:08:20.884Z,40.67
2023-07-11T09:09:24.099Z,40.08
2023-07-11T09:10:49.101Z,39.63
2023-07-11T09:12:25.428Z,39.81
2023-07-11T09:14:09.650Z,40.03
2023-07-11T09:15:44.100Z,40.19
2023-07-11T09:17:05.748Z,39.98
2023-07-11T09:18:21.725Z,40.05
2023-07-11T09:19:45.879Z,40.65
2023-07-11T09:21:02.264Z,40.61
2023-07-11T09:22:04.921Z,39.72
2023-07-11T09:23:38.932Z,39.50
2023-07-11T09:25:10.828Z,39.48
2023-07-11T09:26:26.274Z,39.13
2023-07-11T09:27:35.825Z,39.26
2023-07-11T09:28:40.945Z,38.96
2023-07-11T09:29:46.802Z,38.82
2023-07-11T09:31:00.741Z,38.96
2023-07-11T09:32:05.579Z,39.56
2023-07-11T09:33:16.012Z,38.83
2023-07-11T09:34:25.785Z,38.85
2023-07-11T09:35:31.629Z,39.12
2023-07-11T09:36:35.284Z,38.83
2023-07-11T09:37:44.073Z,38.95
2023-07-11T09:38:55.558Z,38.60
2023-07-11T09:40:14.112Z,39.28
2023-07-11T09:41:21.036Z,39.50
2023-07-11T09:42:34.504Z,39.41
2023-07-11T09:43:37.071Z,39.48
2023-07-11T09:44:39.688Z,39.52
2023-07-11T09:45:44.234Z,39.55
2023-07-11T09:46:47.543Z,39.46
2023-07-11T09:48:29.182Z,39.05
2023-07-11T09:49:32.336Z,38.82
2023-07-11T09:51:06.929Z,38.92
2023-07-11T09:52:27.521Z,38.66
2023-07-11T09:53:31.988Z,38.87
2023-07-11T09:54:59.329Z,39.21
2023-07-11T09:56:14.320Z,38.64
2023-07-11T09:57:17.737Z,38.29
2023-07-11T09:58:20.355Z,38.23
2023-07-11T09:59:23.257Z,38.43
2023-07-11T10:00:25.852Z,38.24
2023-07-11T10:01:33.420Z,38.69
2023-07-11T10:02:36.137Z,38.40
2023-07-11T10:03:38.735Z,38.58
2023-07-11T10:04:45.035Z,38.91
2023-07-11T10:05:50.832Z,39.03
2023-07-11T10:07:05.182Z,39.08
2023-07-11T10:08:20.671Z,38.71
2023-07-11T10:09:35.121Z,38.76
2023-07-11T10:10:37.702Z,39.00
2023-07-11T10:11:40.336Z,39.17
2023-07-11T10:12:44.361Z,38.88
2023-07-11T10:13:47.039Z,38.99
2023-07-11T10:15:01.307Z,39.30
2023-07-11T10:16:06.420Z,39.24
2023-07-11T10:17:21.028Z,38.66
2023-07-11T10:18:26.609Z,38.81
2023-07-11T10:19:29.460Z,38.97
2023-07-11T10:20:32.378Z,38.35
2023-07-11T10:21:40.751Z,38.63
2023-07-11T10:22:45.456Z,39.32
2023-07-11T10:23:50.078Z,39.24
2023-07-11T10:24:52.993Z,38.52
2023-07-11T10:26:07.149Z,39.04
2023-07-11T10:27:23.831Z,39.08
2023-07-11T10:28:46.009Z,38.75
2023-07-11T10:29:53.305Z,38.49
2023-07-11T10:30:59.019Z,38.44
2023-07-11T10:32:07.429Z,38.52
2023-07-11T10:33:24.884Z,38.59
2023-07-11T10:34:45.636Z,38.83
2023-07-11T10:36:04.179Z,38.45
2023-07-11T10:37:14.192Z,38.56
2023-07-11T10:38:25.017Z,38.68
2023-07-11T10:39:51.721Z,39.26
2023-07-11T10:40:59.641Z,38.32
2023-07-11T10:42:11.205Z,37.99
2023-07-11T10:43:30.247Z,38.53
2023-07-11T10:44:41.758Z,38.77
2023-07-11T10:45:48.356Z,38.94
2023-07-11T10:46:53.227Z,39.15
2023-07-11T10:48:05.646Z,38.92
2023-07-11T10:49:16.147Z,38.83
2023-07-11T10:50:27.629Z,39.06
2023-07-11T10:51:45.489Z,38.98
2023-07-11T10:52:52.044Z,39.16
2023-07-11T10:54:05.174Z,39.26
2023-07-11T10:55:18.522Z,38.76
2023-07-11T10:56:25.164Z,38.94
2023-07-11T10:57:44.144Z,39.07
2023-07-11T10:58:48.572Z,39.49
2023-07-11T10:59:51.179Z,39.49
2023-07-11T11:01:09.168Z,39.21
2023-07-11T11:02:20.611Z,38.39
2023-07-11T11:03:44.610Z,38.77
2023-07-11T11:04:56.809Z,39.06
2023-07-11T11:06:25.880Z,39.60
2023-07-11T11:07:39.684Z,39.96
2023-07-11T11:09:08.430Z,39.59
2023-07-11T11:10:35.499Z,39.00
2023-07-11T11:12:00.340Z,39.08
2023-07-11T11:13:16.279Z,39.15
2023-07-11T11:14:26.754Z,39.61
2023-07-11T11:15:47.846Z,40.02
2023-07-11T11:17:07.027Z,40.38
2023-07-11T11:18:31.672Z,39.60
2023-07-11T11:19:37.048Z,39.70
2023-07-11T11:21:06.188Z,39.70
2023-07-11T11:22:39.159Z,39.37
2023-07-11T11:24:07.550Z,39.69
2023-07-11T11:25:20.325Z,39.40
2023-07-11T11:26:24.014Z,39.56
2023-07-11T11:27:38.734Z,39.79
2023-07-11T11:28:53.199Z,39.54
2023-07-11T11:30:18.776Z,39.84
2023-07-11T11:31:30.154Z,39.86
2023-07-11T11:32:54.238Z,39.90
2023-07-11T11:34:32.630Z,40.06
2023-07-11T11:35:41.304Z,40.62
2023-07-11T11:37:04.201Z,40.24
2023-07-11T11:38:54.879Z,39.14
2023-07-11T11:40:12.765Z,39.77
2023-07-11T11:41:19.830Z,39.97
2023-07-11T11:42:26.354Z,40.18
2023-07-11T11:43:32.757Z,39.91
2023-07-11T11:47:02.575Z,40.13
2023-07-11T11:49:39.651Z,40.19
2023-07-11T11:51:50.443Z,39.41
2023-07-11T11:53:17.043Z,39.33
2023-07-11T11:54:25.411Z,38.97
2023-07-11T11:55:39.155Z,38.92
2023-07-11T11:56:46.914Z,39.15
2023-07-11T11:57:49.754Z,39.17
2023-07-11T11:59:01.983Z,39.09
2023-07-11T12:01:42.590Z,39.46
2023-07-11T12:02:49.881Z,38.61
2023-07-11T12:03:52.732Z,38.75
2023-07-11T12:04:58.349Z,38.70
2023-07-11T12:06:32.229Z,38.69
2023-07-11T12:07:40.918Z,38.74
2023-07-11T12:08:45.255Z,38.81
2023-07-11T12:09:52.323Z,38.91
2023-07-11T12:11:09.995Z,39.14
2023-07-11T12:12:14.401Z,39.06
2023-07-11T12:13:31.279Z,39.11
2023-07-11T12:14:37.941Z,38.52
2023-07-11T12:15:40.591Z,38.38
2023-07-11T12:16:48.934Z,38.58
2023-07-11T12:17:51.671Z,38.63
2023-07-11T12:18:58.204Z,38.53
2023-07-11T12:20:08.610Z,38.51
2023-07-11T12:21:17.454Z,38.73
2023-07-11T12:22:20.054Z,38.53
2023-07-11T12:23:55.399Z,38.60
2023-07-11T12:25:04.390Z,38.46
2023-07-11T12:26:17.286Z,38.42
2023-07-11T12:27:20.006Z,37.90
2023-07-11T12:28:24.980Z,38.06
2023-07-11T12:29:51.571Z,38.13
2023-07-11T12:31:24.102Z,38.70
2023-07-11T12:32:50.679Z,38.60
2023-07-11T12:34:04.783Z,38.71
2023-07-11T12:35:07.533Z,38.67
2023-07-11T12:36:25.172Z,38.88
2023-07-11T12:37:28.530Z,38.37
2023-07-11T12:38:39.637Z,38.35
2023-07-11T12:40:14.321Z,38.47
2023-07-11T12:41:44.608Z,38.39
2023-07-11T12:42:53.029Z,38.26
2023-07-11T12:43:55.960Z,38.47
2023-07-11T12:44:59.607Z,38.32
2023-07-11T12:46:15.452Z,38.31
2023-07-11T12:47:20.685Z,38.38
2023-07-11T12:48:27.754Z,38.72
2023-07-11T12:49:31.042Z,39.15
2023-07-11T12:50:53.968Z,39.23
2023-07-11T12:52:17.642Z,39.12
2023-07-11T12:53:20.423Z,39.15
2023-07-11T12:54:25.564Z,39.13
2023-07-11T12:55:29.783Z,39.23
2023-07-11T12:56:32.423Z,39.42
2023-07-11T12:57:34.996Z,39.77
2023-07-11T12:58:37.577Z,39.88
2023-07-11T12:59:40.476Z,39.22
2023-07-11T13:00:43.696Z,38.88
2023-07-11T13:01:46.335Z,38.94
2023-07-11T13:02:52.130Z,38.74
2023-07-11T13:03:54.836Z,38.81
2023-07-11T13:04:59.930Z,39.07
2023-07-11T13:06:21.084Z,39.12
2023-07-11T13:07:28.942Z,39.14
2023-07-11T13:08:37.856Z,39.17
2023-07-11T13:09:59.534Z,39.16
2023-07-11T13:11:05.103Z,39.52
2023-07-11T13:12:13.329Z,39.70
2023-07-11T13:13:15.903Z,39.76
2023-07-11T13:14:18.850Z,39.42
2023-07-11T13:15:24.945Z,39.19
2023-07-11T13:16:39.295Z,38.72
2023-07-11T13:17:43.781Z,38.62
2023-07-11T13:18:49.691Z,38.75
2023-07-11T13:20:00.611Z,38.71
2023-07-11T13:21:05.696Z,38.89
2023-07-11T13:22:17.526Z,39.12
2023-07-11T13:23:20.312Z,39.31
2023-07-11T13:24:29.729Z,39.45
2023-07-11T13:25:37.281Z,38.88
2023-07-11T13:26:39.992Z,38.72
2023-07-11T13:27:47.386Z,38.44
2023-07-11T13:29:20.247Z,38.29
2023-07-11T13:30:26.890Z,38.12
2023-07-11T13:31:32.583Z,38.24
2023-07-11T13:32:39.887Z,38.56
2023-07-11T13:33:44.706Z,38.35
2023-07-11T13:34:49.916Z,38.31
2023-07-11T13:36:07.372Z,38.24
2023-07-11T13:37:10.765Z,38.36
2023-07-11T13:38:14.254Z,38.33
2023-07-11T13:39:26.775Z,38.50
2023-07-11T13:40:39.021Z,38.69
2023-07-11T13:41:46.858Z,38.52
2023-07-11T13:42:49.483Z,38.62
2023-07-11T13:43:57.915Z,38.90
2023-07-11T13:45:12.972Z,39.32
2023-07-11T13:46:17.562Z,39.44
2023-07-11T13:47:41.963Z,39.10
2023-07-11T13:48:49.468Z,39.39
2023-07-11T13:50:11.772Z,39.48
2023-07-11T13:51:23.638Z,39.58
2023-07-11T13:52:40.835Z,39.31
2023-07-11T13:53:50.735Z,39.30
2023-07-11T13:54:56.094Z,39.27
2023-07-11T13:55:58.761Z,38.76
2023-07-11T13:57:01.928Z,38.41
2023-07-11T13:58:06.477Z,38.76
2023-07-11T13:59:09.599Z,39.30
2023-07-11T14:00:16.327Z,39.31
2023-07-11T14:01:23.416Z,39.05
2023-07-11T14:02:34.507Z,38.79
2023-07-11T14:03:37.355Z,38.96
2023-07-11T14:04:40.873Z,38.90
2023-07-11T14:05:47.525Z,38.75
2023-07-11T14:06:50.107Z,38.62
2023-07-11T14:07:54.521Z,38.77
2023-07-11T14:08:57.134Z,39.00
2023-07-11T14:09:59.750Z,38.83
2023-07-11T14:11:03.104Z,38.72
2023-07-11T14:12:06.854Z,38.53
2023-07-11T14:13:21.941Z,38.71
2023-07-11T14:14:39.263Z,38.77
2023-07-11T14:15:43.113Z,39.25
2023-07-11T14:16:46.319Z,39.10
2023-07-11T14:17:50.548Z,38.80
2023-07-11T14:18:55.572Z,39.20
2023-07-11T14:19:58.135Z,39.27
2023-07-11T14:21:00.705Z,39.07
2023-07-11T14:22:25.271Z,39.19